createdAt,value
2019-03-12T00:00:56.261Z,980.69
2019-03-12T00:01:56.331Z,980.66
2019-03-12T00:02:56.478Z,980.68
2019-03-12T00:03:56.382Z,980.72
2019-03-12T00:04:56.420Z,980.78
2019-03-12T00:05:56.496Z,980.76
2019-03-12T00:06:56.691Z,980.70
2019-03-12T00:07:56.542Z,980.74
2019-03-12T00:08:56.584Z,980.79
2019-03-12T00:09:56.625Z,980.75
2019-03-12T00:10:56.665Z,980.84
2019-03-12T00:11:56.731Z,980.80
2019-03-12T00:12:56.755Z,980.79
2019-03-12T00:13:56.791Z,980.83
2019-03-12T00:14:56.828Z,980.85
2019-03-12T00:15:56.875Z,980.78
2019-03-12T00:16:57.100Z,980.76
2019-03-12T00:17:56.964Z,980.78
2019-03-12T00:18:56.993Z,980.82
2019-03-12T00:19:57.033Z,980.80
2019-03-12T00:20:57.072Z,980.79
2019-03-12T00:21:57.516Z,980.84
2019-03-12T00:22:57.157Z,980.75
2019-03-12T00:23:57.304Z,980.81
2019-03-12T00:24:57.236Z,980.85
2019-03-12T00:25:57.276Z,980.83
2019-03-12T00:26:57.341Z,980.84
2019-03-12T00:27:57.381Z,980.84
2019-03-12T00:28:57.397Z,980.85
2019-03-12T00:29:57.448Z,980.84
2019-03-12T00:30:57.571Z,980.90
2019-03-12T00:31:57.524Z,980.97
2019-03-12T00:32:57.582Z,980.87
2019-03-12T00:33:57.605Z,980.90
2019-03-12T00:34:57.652Z,980.99
2019-03-12T00:35:57.686Z,981.01
2019-03-12T00:36:57.732Z,980.99
2019-03-12T00:37:57.795Z,981.04
2019-03-12T00:38:57.827Z,981.05
2019-03-12T00:39:57.851Z,981.08
2019-03-12T00:40:57.894Z,981.11
2019-03-12T00:41:57.933Z,981.11
2019-03-12T00:42:57.974Z,981.15
2019-03-12T00:43:58.034Z,981.13
2019-03-12T00:44:58.055Z,981.14
2019-03-12T00:45:58.093Z,981.17
2019-03-12T00:46:58.142Z,981.12
2019-03-12T00:47:58.198Z,981.12
2019-03-12T00:48:58.216Z,981.15
2019-03-12T00:49:58.266Z,981.18
2019-03-12T00:50:58.298Z,981.16
2019-03-12T00:51:58.355Z,981.18
2019-03-12T00:52:58.405Z,981.15
2019-03-12T00:53:58.429Z,981.16
2019-03-12T00:54:58.479Z,981.15
2019-03-12T00:55:58.513Z,981.17
2019-03-12T00:56:58.544Z,981.14
2019-03-12T00:57:58.665Z,981.10
2019-03-12T00:58:58.627Z,981.13
2019-03-12T00:59:58.695Z,981.13
2019-03-12T01:00:58.714Z,981.15
2019-03-12T01:01:58.747Z,981.08
2019-03-12T01:02:58.808Z,981.18
2019-03-12T01:03:58.837Z,981.13
2019-03-12T01:04:58.887Z,981.12
2019-03-12T01:05:58.913Z,981.12
2019-03-12T01:06:58.957Z,981.12
2019-03-12T01:07:59.012Z,981.17
2019-03-12T01:08:59.031Z,981.17
2019-03-12T01:09:59.094Z,981.16
2019-03-12T01:10:59.140Z,981.17
2019-03-12T01:11:59.158Z,981.24
2019-03-12T01:12:59.200Z,981.18
2019-03-12T01:13:59.257Z,981.23
2019-03-12T01:14:59.285Z,981.19
2019-03-12T01:15:59.317Z,981.21
2019-03-12T01:16:59.371Z,981.25
2019-03-12T01:17:59.403Z,981.22
2019-03-12T01:18:59.461Z,981.19
2019-03-12T01:19:59.489Z,981.22
2019-03-12T01:20:59.531Z,981.29
2019-03-12T01:21:59.563Z,981.26
2019-03-12T01:22:59.638Z,981.22
2019-03-12T01:23:59.686Z,981.24
2019-03-12T01:24:59.684Z,981.24
2019-03-12T01:25:59.725Z,981.24
2019-03-12T01:26:59.780Z,981.21
2019-03-12T01:27:59.807Z,981.23
2019-03-12T01:28:59.899Z,981.23
2019-03-12T01:29:59.893Z,981.22
2019-03-12T01:30:59.938Z,981.18
2019-03-12T01:31:59.971Z,981.21
2019-03-12T01:33:00.017Z,981.17
2019-03-12T01:34:00.195Z,981.16
2019-03-12T01:35:00.115Z,981.21
2019-03-12T01:36:00.145Z,981.17
2019-03-12T01:37:00.175Z,981.20
2019-03-12T01:38:00.221Z,981.14
2019-03-12T01:39:00.289Z,981.20
2019-03-12T01:40:00.444Z,981.23
2019-03-12T01:41:00.368Z,981.22
2019-03-12T01:42:00.386Z,981.19
2019-03-12T01:43:00.425Z,981.21
2019-03-12T01:44:00.463Z,981.19
2019-03-12T01:45:00.530Z,981.23
2019-03-12T01:46:00.546Z,981.22
2019-03-12T01:47:00.603Z,981.22
2019-03-12T01:48:00.681Z,981.18
2019-03-12T01:49:00.666Z,981.18
2019-03-12T01:50:00.746Z,981.23
2019-03-12T01:51:00.747Z,981.15
2019-03-12T01:52:00.792Z,981.25
2019-03-12T01:53:00.829Z,981.20
2019-03-12T01:54:00.960Z,981.20
2019-03-12T01:55:01.012Z,981.22
2019-03-12T01:56:00.955Z,981.24
2019-03-12T01:57:00.995Z,981.24
2019-03-12T01:58:01.040Z,981.24
2019-03-12T01:59:01.092Z,981.23
2019-03-12T02:00:01.140Z,981.26
2019-03-12T02:01:01.178Z,981.26
2019-03-12T02:02:01.211Z,981.24
2019-03-12T02:03:01.244Z,981.22
2019-03-12T02:04:01.282Z,981.21
2019-03-12T02:05:01.319Z,981.21
2019-03-12T02:06:01.380Z,981.19
2019-03-12T02:07:01.424Z,981.21
2019-03-12T02:08:01.443Z,981.24
2019-03-12T02:09:01.483Z,981.28
2019-03-12T02:10:01.526Z,981.29
2019-03-12T02:11:01.583Z,981.29
2019-03-12T02:12:01.641Z,981.34
2019-03-12T02:13:01.651Z,981.33
2019-03-12T02:14:01.700Z,981.33
2019-03-12T02:15:01.735Z,981.33
2019-03-12T02:16:01.773Z,981.37
2019-03-12T02:17:01.850Z,981.40
2019-03-12T02:18:01.854Z,981.36
2019-03-12T02:19:01.898Z,981.35
2019-03-12T02:20:01.936Z,981.34
2019-03-12T02:21:01.976Z,981.34
2019-03-12T02:22:02.039Z,981.39
2019-03-12T02:23:02.056Z,981.36
2019-03-12T02:24:02.100Z,981.40
2019-03-12T02:25:02.149Z,981.43
2019-03-12T02:26:02.180Z,981.38
2019-03-12T02:27:02.239Z,981.36
2019-03-12T02:28:02.312Z,981.38
2019-03-12T02:29:02.306Z,981.43
2019-03-12T02:30:02.361Z,981.41
2019-03-12T02:31:02.387Z,981.40
2019-03-12T02:32:02.445Z,981.40
2019-03-12T02:33:02.487Z,981.40
2019-03-12T02:34:02.513Z,981.43
2019-03-12T02:35:02.554Z,981.40
2019-03-12T02:36:02.595Z,981.42
2019-03-12T02:37:02.629Z,981.42
2019-03-12T02:38:02.698Z,981.50
2019-03-12T02:39:02.713Z,981.47
2019-03-12T02:40:02.760Z,981.46
2019-03-12T02:41:02.798Z,981.42
2019-03-12T02:42:02.882Z,981.44
2019-03-12T02:43:02.905Z,981.46
2019-03-12T02:44:02.920Z,981.47
2019-03-12T02:45:02.981Z,981.42
2019-03-12T02:46:02.997Z,981.44
2019-03-12T02:47:03.040Z,981.40
2019-03-12T02:48:03.110Z,981.39
2019-03-12T02:49:03.122Z,981.38
2019-03-12T02:50:03.170Z,981.40
2019-03-12T02:51:03.205Z,981.37
2019-03-12T02:52:03.252Z,981.41
2019-03-12T02:53:03.303Z,981.37
2019-03-12T02:54:03.336Z,981.35
2019-03-12T02:55:03.386Z,981.38
2019-03-12T02:56:03.416Z,981.34
2019-03-12T02:57:03.457Z,981.35
2019-03-12T02:58:03.517Z,981.37
2019-03-12T02:59:03.534Z,981.40
2019-03-12T03:00:03.578Z,981.41
2019-03-12T03:01:03.609Z,981.41
2019-03-12T03:02:03.653Z,981.39
2019-03-12T03:03:03.726Z,981.44
2019-03-12T03:04:03.737Z,981.44
2019-03-12T03:05:03.780Z,981.43
2019-03-12T03:06:03.848Z,981.48
2019-03-12T03:07:03.856Z,981.42
2019-03-12T03:08:03.933Z,981.41
2019-03-12T03:09:03.946Z,981.43
2019-03-12T03:10:04.089Z,981.48
2019-03-12T03:11:04.026Z,981.47
2019-03-12T03:12:04.062Z,981.46
2019-03-12T03:13:04.142Z,981.47
2019-03-12T03:14:04.156Z,981.51
2019-03-12T03:15:04.186Z,981.54
2019-03-12T03:16:04.225Z,981.58
2019-03-12T03:17:04.265Z,981.51
2019-03-12T03:18:04.329Z,981.60
2019-03-12T03:19:04.350Z,981.55
2019-03-12T03:20:04.391Z,981.57
2019-03-12T03:21:04.431Z,981.57
2019-03-12T03:22:04.477Z,981.58
2019-03-12T03:23:04.563Z,981.58
2019-03-12T03:24:04.574Z,981.57
2019-03-12T03:25:04.592Z,981.56
2019-03-12T03:26:04.636Z,981.52
2019-03-12T03:27:04.684Z,981.51
2019-03-12T03:28:04.721Z,981.56
2019-03-12T03:29:04.774Z,981.50
2019-03-12T03:30:04.830Z,981.56
2019-03-12T03:31:04.921Z,981.57
2019-03-12T03:32:04.894Z,981.59
2019-03-12T03:33:04.996Z,981.55
2019-03-12T03:34:05.001Z,981.58
2019-03-12T03:35:05.010Z,981.54
2019-03-12T03:36:05.044Z,981.59
2019-03-12T03:37:05.079Z,981.55
2019-03-12T03:38:05.168Z,981.57
2019-03-12T03:39:05.183Z,981.53
2019-03-12T03:40:05.206Z,981.51
2019-03-12T03:41:05.972Z,981.50
2019-03-12T03:42:05.283Z,981.48
2019-03-12T03:43:05.324Z,981.46
2019-03-12T03:44:05.388Z,981.50
2019-03-12T03:45:05.404Z,981.55
2019-03-12T03:46:05.458Z,981.53
2019-03-12T03:47:05.486Z,981.54
2019-03-12T03:48:05.533Z,981.52
2019-03-12T03:49:05.601Z,981.53
2019-03-12T03:50:05.608Z,981.56
2019-03-12T03:51:05.648Z,981.57
2019-03-12T03:52:05.698Z,981.58
2019-03-12T03:53:05.725Z,981.59
2019-03-12T03:54:05.801Z,981.60
2019-03-12T03:55:05.830Z,981.61
2019-03-12T03:56:05.845Z,981.65
2019-03-12T03:57:05.888Z,981.65
2019-03-12T03:58:05.932Z,981.67
2019-03-12T03:59:05.974Z,981.64
2019-03-12T04:00:06.038Z,981.64
2019-03-12T04:01:06.054Z,981.59
2019-03-12T04:02:06.093Z,981.64
2019-03-12T04:03:06.132Z,981.59
2019-03-12T04:04:06.194Z,981.55
2019-03-12T04:05:06.240Z,981.62
2019-03-12T04:06:06.275Z,981.57
2019-03-12T04:07:06.296Z,981.57
2019-03-12T04:08:06.338Z,981.56
2019-03-12T04:09:06.373Z,981.53
2019-03-12T04:10:06.437Z,981.58
2019-03-12T04:11:06.453Z,981.53
2019-03-12T04:12:06.499Z,981.51
2019-03-12T04:13:06.535Z,981.54
2019-03-12T04:14:06.587Z,981.57
2019-03-12T04:15:06.631Z,981.60
2019-03-12T04:16:06.665Z,981.59
2019-03-12T04:17:06.715Z,981.53
2019-03-12T04:18:06.746Z,981.56
2019-03-12T04:19:06.778Z,981.53
2019-03-12T04:20:06.903Z,981.54
2019-03-12T04:21:06.879Z,981.54
2019-03-12T04:22:06.900Z,981.54
2019-03-12T04:23:06.942Z,981.48
2019-03-12T04:24:06.979Z,981.46
2019-03-12T04:25:07.035Z,981.44
2019-03-12T04:26:07.095Z,981.46
2019-03-12T04:27:07.112Z,981.43
2019-03-12T04:28:07.142Z,981.41
2019-03-12T04:29:07.187Z,981.39
2019-03-12T04:30:07.223Z,981.40
2019-03-12T04:31:07.292Z,981.44
2019-03-12T04:32:07.307Z,981.41
2019-03-12T04:33:07.343Z,981.45
2019-03-12T04:34:07.393Z,981.46
2019-03-12T04:35:07.427Z,981.43
2019-03-12T04:36:07.485Z,981.42
2019-03-12T04:37:07.508Z,981.40
2019-03-12T04:38:07.546Z,981.47
2019-03-12T04:39:07.589Z,981.50
2019-03-12T04:40:07.629Z,981.54
2019-03-12T04:41:07.722Z,981.52
2019-03-12T04:42:07.711Z,981.55
2019-03-12T04:43:07.756Z,981.55
2019-03-12T04:44:07.791Z,981.56
2019-03-12T04:45:07.835Z,981.50
2019-03-12T04:46:07.893Z,981.50
2019-03-12T04:47:07.911Z,981.53
2019-03-12T04:48:07.954Z,981.53
2019-03-12T04:49:08.002Z,981.53
2019-03-12T04:50:08.035Z,981.57
2019-03-12T04:51:08.099Z,981.47
2019-03-12T04:52:08.120Z,981.50
2019-03-12T04:53:08.163Z,981.50
2019-03-12T04:54:08.198Z,981.46
2019-03-12T04:55:08.243Z,981.45
2019-03-12T04:56:08.312Z,981.46
2019-03-12T04:57:08.344Z,981.48
2019-03-12T04:58:08.361Z,981.52
2019-03-12T04:59:08.487Z,981.49
2019-03-12T05:00:08.441Z,981.47
2019-03-12T05:01:08.486Z,981.45
2019-03-12T05:02:08.546Z,981.43
2019-03-12T05:03:08.668Z,981.41
2019-03-12T05:04:08.605Z,981.39
2019-03-12T05:05:08.644Z,981.36
2019-03-12T05:06:08.686Z,981.31
2019-03-12T05:07:08.756Z,981.33
2019-03-12T05:08:08.765Z,981.31
2019-03-12T05:09:08.808Z,981.28
2019-03-12T05:10:08.850Z,981.28
2019-03-12T05:11:08.888Z,981.27
2019-03-12T05:12:08.954Z,981.26
2019-03-12T05:13:08.970Z,981.22
2019-03-12T05:14:09.012Z,981.18
2019-03-12T05:15:09.051Z,981.18
2019-03-12T05:16:09.117Z,981.21
2019-03-12T05:17:09.158Z,981.18
2019-03-12T05:18:09.174Z,981.16
2019-03-12T05:19:09.213Z,981.16
2019-03-12T05:20:09.254Z,981.11
2019-03-12T05:21:09.295Z,981.10
2019-03-12T05:22:09.383Z,981.12
2019-03-12T05:23:09.383Z,981.13
2019-03-12T05:24:09.417Z,981.10
2019-03-12T05:25:09.455Z,981.13
2019-03-12T05:26:09.498Z,981.08
2019-03-12T05:27:09.567Z,981.05
2019-03-12T05:28:09.604Z,981.07
2019-03-12T05:29:09.622Z,981.02
2019-03-12T05:30:09.663Z,981.04
2019-03-12T05:31:09.702Z,981.02
2019-03-12T05:32:09.759Z,981.03
2019-03-12T05:33:09.802Z,981.05
2019-03-12T05:34:09.841Z,981.05
2019-03-12T05:35:09.871Z,981.04
2019-03-12T05:36:09.903Z,981.01
2019-03-12T05:37:09.945Z,981.00
2019-03-12T05:38:10.004Z,981.00
2019-03-12T05:39:10.048Z,981.03
2019-03-12T05:40:10.069Z,980.99
2019-03-12T05:41:12.214Z,980.95
2019-03-12T05:42:10.162Z,980.95
2019-03-12T05:43:10.208Z,980.91
2019-03-12T05:44:10.245Z,980.92
2019-03-12T05:45:10.265Z,980.93
2019-03-12T05:46:10.312Z,980.93
2019-03-12T05:47:10.351Z,980.91
2019-03-12T05:48:10.413Z,980.92
2019-03-12T05:49:10.430Z,980.92
2019-03-12T05:50:10.513Z,980.93
2019-03-12T05:51:10.509Z,980.90
2019-03-12T05:52:10.549Z,980.90
2019-03-12T05:53:10.655Z,980.88
2019-03-12T05:54:10.655Z,980.88
2019-03-12T05:55:10.685Z,980.82
2019-03-12T05:56:10.717Z,980.87
2019-03-12T05:57:10.751Z,980.80
2019-03-12T05:58:10.811Z,980.77
2019-03-12T05:59:10.848Z,980.74
2019-03-12T06:00:10.985Z,980.76
2019-03-12T06:01:10.913Z,980.75
2019-03-12T06:02:10.953Z,980.72
2019-03-12T06:03:10.993Z,980.70
2019-03-12T06:04:11.071Z,980.70
2019-03-12T06:05:11.071Z,980.67
2019-03-12T06:06:11.112Z,980.68
2019-03-12T06:07:11.155Z,980.67
2019-03-12T06:08:11.200Z,980.69
2019-03-12T06:09:11.258Z,980.62
2019-03-12T06:10:11.278Z,980.67
2019-03-12T06:11:11.314Z,980.62
2019-03-12T06:12:11.353Z,980.64
2019-03-12T06:13:11.401Z,980.63
2019-03-12T06:14:11.470Z,980.57
2019-03-12T06:15:11.473Z,980.59
2019-03-12T06:16:11.520Z,980.59
2019-03-12T06:17:11.562Z,980.61
2019-03-12T06:18:11.602Z,980.58
2019-03-12T06:19:11.656Z,980.61
2019-03-12T06:20:11.679Z,980.59
2019-03-12T06:21:11.715Z,980.64
2019-03-12T06:22:12.301Z,980.65
2019-03-12T06:23:15.038Z,980.65
2019-03-12T06:24:11.872Z,980.62
2019-03-12T06:25:11.893Z,980.65
2019-03-12T06:26:11.921Z,980.61
2019-03-12T06:27:11.952Z,980.67
2019-03-12T06:28:11.993Z,980.68
2019-03-12T06:29:12.039Z,980.67
2019-03-12T06:30:12.110Z,980.67
2019-03-12T06:31:12.112Z,980.69
2019-03-12T06:32:12.162Z,980.68
2019-03-12T06:33:12.189Z,980.69
2019-03-12T06:34:12.242Z,980.66
2019-03-12T06:35:12.296Z,980.69
2019-03-12T06:36:12.318Z,980.71
2019-03-12T06:37:12.353Z,980.71
2019-03-12T06:38:12.395Z,980.71
2019-03-12T06:39:12.436Z,980.72
2019-03-12T06:40:12.519Z,980.72
2019-03-12T06:41:12.513Z,980.72
2019-03-12T06:42:12.555Z,980.70
2019-03-12T06:43:12.603Z,980.73
2019-03-12T06:44:12.641Z,980.70
2019-03-12T06:45:13.690Z,980.69
2019-03-12T06:46:12.717Z,980.71
2019-03-12T06:47:12.778Z,980.66
2019-03-12T06:48:12.902Z,980.65
2019-03-12T06:49:12.837Z,980.69
2019-03-12T06:50:12.913Z,980.67
2019-03-12T06:51:12.928Z,980.68
2019-03-12T06:52:12.958Z,980.62
2019-03-12T06:53:12.998Z,980.66
2019-03-12T06:54:13.050Z,980.67
2019-03-12T06:55:13.170Z,980.65
2019-03-12T06:56:13.147Z,980.62
2019-03-12T06:57:13.164Z,980.58
2019-03-12T06:58:13.203Z,980.55
2019-03-12T06:59:13.257Z,980.56
2019-03-12T07:00:13.286Z,980.54
2019-03-12T07:01:13.350Z,980.50
2019-03-12T07:02:13.378Z,980.45
2019-03-12T07:03:13.415Z,980.45
2019-03-12T07:04:13.458Z,980.44
2019-03-12T07:05:13.496Z,980.46
2019-03-12T07:06:13.554Z,980.46
2019-03-12T07:07:16.813Z,980.45
2019-03-12T07:08:13.618Z,980.43
2019-03-12T07:09:13.660Z,980.45
2019-03-12T07:10:13.706Z,980.45
2019-03-12T07:11:13.778Z,980.44
2019-03-12T07:12:13.788Z,980.48
2019-03-12T07:13:13.824Z,980.46
2019-03-12T07:14:13.871Z,980.49
2019-03-12T07:15:13.904Z,980.49
2019-03-12T07:16:13.972Z,980.46
2019-03-12T07:17:14.006Z,980.48
2019-03-12T07:18:14.040Z,980.43
2019-03-12T07:19:14.074Z,980.45
2019-03-12T07:20:14.127Z,980.45
2019-03-12T07:21:14.165Z,980.41
2019-03-12T07:22:14.219Z,980.38
2019-03-12T07:23:14.240Z,980.36
2019-03-12T07:24:14.292Z,980.37
2019-03-12T07:25:14.324Z,980.36
2019-03-12T07:26:14.381Z,980.37
2019-03-12T07:27:14.475Z,980.35
2019-03-12T07:28:14.452Z,980.30
2019-03-12T07:29:14.487Z,980.32
2019-03-12T07:30:14.535Z,980.32
2019-03-12T07:31:14.586Z,980.28
2019-03-12T07:32:14.631Z,980.24
2019-03-12T07:33:14.674Z,980.24
2019-03-12T07:34:18.171Z,980.22
2019-03-12T07:35:14.737Z,980.26
2019-03-12T07:36:14.826Z,980.25
2019-03-12T07:37:14.828Z,980.28
2019-03-12T07:38:14.894Z,980.28
2019-03-12T07:39:14.915Z,980.26
2019-03-12T07:40:14.948Z,980.22
2019-03-12T07:41:26.434Z,980.22
2019-03-12T07:42:15.076Z,980.23
2019-03-12T07:43:15.103Z,980.23
2019-03-12T07:44:15.122Z,980.25
2019-03-12T07:45:15.239Z,980.26
2019-03-12T07:46:15.206Z,980.24
2019-03-12T07:47:15.250Z,980.23
2019-03-12T07:48:15.429Z,980.26
2019-03-12T07:49:15.336Z,980.20
2019-03-12T07:50:15.381Z,980.19
2019-03-12T07:51:15.424Z,980.20
2019-03-12T07:52:15.473Z,980.26
2019-03-12T07:53:15.551Z,980.16
2019-03-12T07:54:15.560Z,980.17
2019-03-12T07:55:15.606Z,980.13
2019-03-12T07:56:15.647Z,980.11
2019-03-12T07:57:15.709Z,980.10
2019-03-12T07:58:15.771Z,980.05
2019-03-12T07:59:15.785Z,980.03
2019-03-12T08:00:15.829Z,980.02
2019-03-12T08:01:15.877Z,980.04
2019-03-12T08:02:15.920Z,980.00
2019-03-12T08:03:16.003Z,980.00
2019-03-12T08:04:16.048Z,979.97
2019-03-12T08:05:16.087Z,979.98
2019-03-12T08:06:16.116Z,980.00
2019-03-12T08:07:16.155Z,979.94
2019-03-12T08:08:16.205Z,979.96
2019-03-12T08:09:16.272Z,979.98
2019-03-12T08:10:16.298Z,979.96
2019-03-12T08:11:16.351Z,979.94
2019-03-12T08:12:16.387Z,979.93
2019-03-12T08:13:16.439Z,979.95
2019-03-12T08:14:16.522Z,979.92
2019-03-12T08:15:22.941Z,979.93
2019-03-12T08:16:16.573Z,979.91
2019-03-12T08:17:16.618Z,979.91
2019-03-12T08:18:16.687Z,979.89
2019-03-12T08:19:16.741Z,979.90
2019-03-12T08:20:16.774Z,979.88
2019-03-12T08:21:22.386Z,979.90
2019-03-12T08:22:16.943Z,979.89
2019-03-12T08:23:16.902Z,979.92
2019-03-12T08:24:16.977Z,979.91
2019-03-12T08:25:17.008Z,979.90
2019-03-12T08:26:17.047Z,979.86
2019-03-12T08:27:17.095Z,979.84
2019-03-12T08:28:17.152Z,979.80
2019-03-12T08:29:17.496Z,979.75
2019-03-12T08:30:17.235Z,979.74
2019-03-12T08:31:17.283Z,979.72
2019-03-12T08:32:17.331Z,979.72
2019-03-12T08:33:17.399Z,979.68
2019-03-12T08:34:17.447Z,979.68
2019-03-12T08:35:17.490Z,979.61
2019-03-12T08:36:17.522Z,979.61
2019-03-12T08:37:17.574Z,979.62
2019-03-12T08:38:17.620Z,979.56
2019-03-12T08:39:17.695Z,979.52
2019-03-12T08:40:17.721Z,979.52
2019-03-12T08:41:17.758Z,979.49
2019-03-12T08:42:17.804Z,979.44
2019-03-12T08:43:17.872Z,979.43
2019-03-12T08:44:17.928Z,979.39
2019-03-12T08:45:17.970Z,979.41
2019-03-12T08:46:18.386Z,979.42
2019-03-12T08:47:18.049Z,979.37
2019-03-12T08:48:18.105Z,979.30
2019-03-12T08:49:18.152Z,979.33
2019-03-12T08:50:18.225Z,979.26
2019-03-12T08:51:18.246Z,979.26
2019-03-12T08:52:18.286Z,979.26
2019-03-12T08:53:18.331Z,979.24
2019-03-12T08:54:21.308Z,979.21
2019-03-12T08:55:18.467Z,979.17
2019-03-12T08:56:18.494Z,979.20
2019-03-12T08:57:18.527Z,979.11
2019-03-12T08:58:18.588Z,979.10
2019-03-12T08:59:18.644Z,979.07
2019-03-12T09:00:18.697Z,979.05
2019-03-12T09:01:18.847Z,979.02
2019-03-12T09:02:18.770Z,979.07
2019-03-12T09:03:18.829Z,979.00
2019-03-12T09:04:18.864Z,979.03
2019-03-12T09:05:18.961Z,979.04
2019-03-12T09:06:18.970Z,979.02
2019-03-12T09:07:19.026Z,978.97
2019-03-12T09:08:19.115Z,978.95
2019-03-12T09:09:19.111Z,978.94
2019-03-12T09:10:19.273Z,978.90
2019-03-12T09:11:19.204Z,978.89
2019-03-12T09:12:19.268Z,978.89
2019-03-12T09:13:19.306Z,978.88
2019-03-12T09:14:19.360Z,978.84
2019-03-12T09:15:19.460Z,978.85
2019-03-12T09:16:19.449Z,978.88
2019-03-12T09:17:19.617Z,978.84
2019-03-12T09:18:19.543Z,978.83
2019-03-12T09:19:19.603Z,978.84
2019-03-12T09:20:19.666Z,978.73
2019-03-12T09:21:19.711Z,978.73
2019-03-12T09:22:19.741Z,978.74
2019-03-12T09:23:19.792Z,978.73
2019-03-12T09:24:19.962Z,978.73
2019-03-12T09:25:19.884Z,978.74
2019-03-12T09:26:19.968Z,978.73
2019-03-12T09:27:19.992Z,978.70
2019-03-12T09:28:20.037Z,978.66
2019-03-12T09:29:20.085Z,978.65
2019-03-12T09:30:20.152Z,978.65
2019-03-12T09:31:20.230Z,978.66
2019-03-12T09:32:20.223Z,978.62
2019-03-12T09:33:20.287Z,978.62
2019-03-12T09:34:20.325Z,978.57
2019-03-12T09:35:20.373Z,978.58
2019-03-12T09:36:20.440Z,978.53
2019-03-12T09:37:20.468Z,978.52
2019-03-12T09:38:20.520Z,978.50
2019-03-12T09:39:20.567Z,978.50
2019-03-12T09:40:20.619Z,978.47
2019-03-12T09:41:20.683Z,978.44
2019-03-12T09:42:20.749Z,978.44
2019-03-12T09:43:20.791Z,978.46
2019-03-12T09:44:20.880Z,978.39
2019-03-12T09:45:20.869Z,978.35
2019-03-12T09:46:20.913Z,978.33
2019-03-12T09:47:20.996Z,978.31
2019-03-12T09:48:21.024Z,978.25
2019-03-12T09:49:21.065Z,978.22
2019-03-12T09:50:21.152Z,978.21
2019-03-12T09:51:21.162Z,978.19
2019-03-12T09:52:21.237Z,978.16
2019-03-12T09:53:21.276Z,978.16
2019-03-12T09:54:21.320Z,978.15
2019-03-12T09:55:21.360Z,978.14
2019-03-12T09:56:21.408Z,978.15
2019-03-12T09:57:21.482Z,978.12
2019-03-12T09:58:21.512Z,978.05
2019-03-12T09:59:21.556Z,978.04
2019-03-12T10:00:21.600Z,978.01
2019-03-12T10:01:21.649Z,978.02
2019-03-12T10:02:21.741Z,978.00
2019-03-12T10:03:21.753Z,977.98
2019-03-12T10:04:21.899Z,977.97
2019-03-12T10:05:21.846Z,977.92
2019-03-12T10:06:21.909Z,977.89
2019-03-12T10:07:21.985Z,977.84
2019-03-12T10:08:22.001Z,977.85
2019-03-12T10:09:22.050Z,977.76
2019-03-12T10:10:22.093Z,977.77
2019-03-12T10:11:22.137Z,977.73
2019-03-12T10:12:22.329Z,977.72
2019-03-12T10:13:22.264Z,977.68
2019-03-12T10:14:22.290Z,977.73
2019-03-12T10:15:22.343Z,977.64
2019-03-12T10:16:22.387Z,977.66
2019-03-12T10:17:22.437Z,977.64
2019-03-12T10:18:22.518Z,977.62
2019-03-12T10:19:22.627Z,977.57
2019-03-12T10:20:22.585Z,977.62
2019-03-12T10:21:22.638Z,977.57
2019-03-12T10:22:22.680Z,977.54
2019-03-12T10:23:22.761Z,977.53
2019-03-12T10:24:22.781Z,977.50
2019-03-12T10:25:22.822Z,977.51
2019-03-12T10:26:22.938Z,977.49
2019-03-12T10:27:22.938Z,977.42
2019-03-12T10:28:23.004Z,977.39
2019-03-12T10:29:23.681Z,977.36
2019-03-12T10:30:23.176Z,977.44
2019-03-12T10:31:23.119Z,977.40
2019-03-12T10:32:23.171Z,977.35
2019-03-12T10:33:23.239Z,977.30
2019-03-12T10:34:29.658Z,977.32
2019-03-12T10:35:23.324Z,977.25
2019-03-12T10:36:23.462Z,977.23
2019-03-12T10:37:23.475Z,977.24
2019-03-12T10:38:23.467Z,977.16
2019-03-12T10:39:23.532Z,977.16
2019-03-12T10:40:23.567Z,977.19
2019-03-12T10:41:23.602Z,977.05
2019-03-12T10:42:23.656Z,977.03
2019-03-12T10:43:23.704Z,977.05
2019-03-12T10:44:23.825Z,977.03
2019-03-12T10:45:23.806Z,976.98
2019-03-12T10:46:23.852Z,977.00
2019-03-12T10:47:23.905Z,977.03
2019-03-12T10:48:23.962Z,976.98
2019-03-12T10:49:36.686Z,977.02
2019-03-12T10:50:24.121Z,976.99
2019-03-12T10:51:24.102Z,976.99
2019-03-12T10:52:24.151Z,976.91
2019-03-12T10:53:24.194Z,976.85
2019-03-12T10:54:24.269Z,976.83
2019-03-12T10:55:24.296Z,976.85
2019-03-12T10:56:24.344Z,976.84
2019-03-12T10:57:24.393Z,976.79
2019-03-12T10:58:24.442Z,976.75
2019-03-12T10:59:24.544Z,976.80
2019-03-12T11:00:24.543Z,976.78
2019-03-12T11:01:24.586Z,976.74
2019-03-12T11:02:24.647Z,976.76
2019-03-12T11:03:24.687Z,976.75
2019-03-12T11:04:24.756Z,976.81
2019-03-12T11:05:24.812Z,976.66
2019-03-12T11:06:24.842Z,976.67
2019-03-12T11:07:24.883Z,976.65
2019-03-12T11:08:24.930Z,976.65
2019-03-12T11:09:24.987Z,976.61
2019-03-12T11:10:25.160Z,976.59
2019-03-12T11:11:25.087Z,976.61
2019-03-12T11:12:25.136Z,976.59
2019-03-12T11:13:25.174Z,976.53
2019-03-12T11:14:25.236Z,976.56
2019-03-12T11:15:25.304Z,976.43
2019-03-12T11:16:25.327Z,976.46
2019-03-12T11:17:25.378Z,976.48
2019-03-12T11:18:25.423Z,976.40
2019-03-12T11:19:25.477Z,976.41
2019-03-12T11:20:26.218Z,976.45
2019-03-12T11:21:25.585Z,976.41
2019-03-12T11:22:25.622Z,976.38
2019-03-12T11:23:25.672Z,976.37
2019-03-12T11:24:25.729Z,976.38
2019-03-12T11:25:27.627Z,976.30
2019-03-12T11:26:25.865Z,976.32
2019-03-12T11:27:25.866Z,976.18
2019-03-12T11:28:26.817Z,976.27
2019-03-12T11:29:25.967Z,976.23
2019-03-12T11:30:26.025Z,976.25
2019-03-12T11:31:26.083Z,976.17
2019-03-12T11:32:26.115Z,976.12
2019-03-12T11:33:26.170Z,976.14
2019-03-12T11:34:26.209Z,976.15
2019-03-12T11:35:26.267Z,976.10
2019-03-12T11:36:26.345Z,975.96
2019-03-12T11:37:26.364Z,976.02
2019-03-12T11:38:26.414Z,975.97
2019-03-12T11:39:26.469Z,975.94
2019-03-12T11:40:31.635Z,975.94
2019-03-12T11:41:26.577Z,975.87
2019-03-12T11:42:26.604Z,975.91
2019-03-12T11:43:26.656Z,975.88
2019-03-12T11:44:26.713Z,975.82
2019-03-12T11:45:36.088Z,975.83
2019-03-12T11:46:26.838Z,975.83
2019-03-12T11:47:26.919Z,975.79
2019-03-12T11:48:26.917Z,975.74
2019-03-12T11:49:26.955Z,975.70
2019-03-12T11:50:27.017Z,975.70
2019-03-12T11:51:27.073Z,975.69
2019-03-12T11:52:27.121Z,975.73
2019-03-12T11:53:27.159Z,975.70
2019-03-12T11:54:27.220Z,975.64
2019-03-12T11:55:27.309Z,975.61
2019-03-12T11:56:27.340Z,975.63
2019-03-12T11:57:27.354Z,975.56
2019-03-12T11:58:27.407Z,975.53
2019-03-12T11:59:27.498Z,975.55
2019-03-12T12:00:27.885Z,975.53
2019-03-12T12:01:27.577Z,975.44
2019-03-12T12:02:27.625Z,975.42
2019-03-12T12:03:27.657Z,975.33
2019-03-12T12:04:27.714Z,975.33
2019-03-12T12:05:27.753Z,975.30
2019-03-12T12:06:27.966Z,975.31
2019-03-12T12:07:27.985Z,975.29
2019-03-12T12:08:27.924Z,975.27
2019-03-12T12:09:27.989Z,975.23
2019-03-12T12:10:28.015Z,975.19
2019-03-12T12:11:28.063Z,975.14
2019-03-12T12:12:28.153Z,975.14
2019-03-12T12:13:28.250Z,975.14
2019-03-12T12:14:28.210Z,975.13
2019-03-12T12:15:28.268Z,975.13
2019-03-12T12:16:28.314Z,975.12
2019-03-12T12:17:28.379Z,975.13
2019-03-12T12:18:28.432Z,975.12
2019-03-12T12:19:28.461Z,975.07
2019-03-12T12:20:30.300Z,975.06
2019-03-12T12:21:28.567Z,974.98
2019-03-12T12:22:28.655Z,975.00
2019-03-12T12:23:28.669Z,975.03
2019-03-12T12:24:28.729Z,974.93
2019-03-12T12:25:28.777Z,974.91
2019-03-12T12:26:28.826Z,974.93
2019-03-12T12:27:28.916Z,974.90
2019-03-12T12:28:28.955Z,974.84
2019-03-12T12:29:28.986Z,974.86